Time;durP1;ratioP1;P1;durP2;ratioP2;P2;SDS_P1;SDS_P2;PMS_P1;PMS_P2;Temp;Humidity;BMP_temperature;BMP_pressure;BME280_temperature;BME280_humidity;BME280_pressure;Samples;Min_cycle;Max_cycle;Signal;HPM_P1;HPM_P2
2021/11/08 00:04:20;;;;;;;18.80;4.80;;;;;;;;;;10341517;28;20031;-84
2021/11/08 00:09:21;;;;;;;16.00;5.63;;;;;;;;;;10356849;28;20093;-85
2021/11/08 00:14:23;;;;;;;22.92;6.82;;;;;;;;;;10356900;28;20057;-85
2021/11/08 00:24:47;;;;;;;15.00;4.90;;;;;;;;;;10342574;28;20030;-85
2021/11/08 00:29:47;;;;;;;25.98;6.53;;;;;;;;;;10356577;28;20062;-85
2021/11/08 00:34:48;;;;;;;22.25;5.38;;;;;;;;;;10356350;28;20062;-84
2021/11/08 00:39:49;;;;;;;19.33;4.25;;;;;;;;;;10340662;28;20109;-84
2021/11/08 00:44:49;;;;;;;20.50;8.07;;;;;;;;;;10341225;28;20416;-84
2021/11/08 00:49:51;;;;;;;15.80;4.13;;;;;;;;;;10355171;28;20069;-84
2021/11/08 00:54:51;;;;;;;19.90;6.65;;;;;;;;;;10354010;28;20041;-84
2021/11/08 00:59:53;;;;;;;9.30;4.60;;;;;;;;;;10338559;28;20416;-84
2021/11/08 01:04:54;;;;;;;21.45;4.35;;;;;;;;;;10354326;28;20029;-84
2021/11/08 01:09:54;;;;;;;20.55;5.00;;;;;;;;;;10356182;28;20105;-85
2021/11/08 01:14:55;;;;;;;48.30;8.68;;;;;;;;;;10358676;28;20077;-84
2021/11/08 01:19:56;;;;;;;18.70;5.25;;;;;;;;;;10338739;28;20061;-84
2021/11/08 01:24:57;;;;;;;32.78;5.97;;;;;;;;;;10355186;28;20030;-84
2021/11/08 01:29:57;;;;;;;24.38;5.30;;;;;;;;;;10363255;28;20026;-84
2021/11/08 01:34:58;;;;;;;30.27;5.13;;;;;;;;;;10400000;28;20030;-84
2021/11/08 01:39:58;;;;;;;22.30;5.40;;;;;;;;;;10378750;28;20030;-84
2021/11/08 01:44:59;;;;;;;16.13;5.20;;;;;;;;;;10387225;28;20033;-84
2021/11/08 01:49:59;;;;;;;15.13;4.37;;;;;;;;;;10358936;28;20073;-84
2021/11/08 01:54:59;;;;;;;15.93;4.03;;;;;;;;;;10338391;28;20280;-85
2021/11/08 02:00:00;;;;;;;10.20;3.30;;;;;;;;;;10339811;28;20101;-84
2021/11/08 02:05:00;;;;;;;19.30;5.00;;;;;;;;;;10336746;28;20019;-84
2021/11/08 02:10:01;;;;;;;14.23;4.40;;;;;;;;;;10351685;28;20026;-84
2021/11/08 02:15:01;;;;;;;17.23;4.15;;;;;;;;;;10351418;28;20057;-84
2021/11/08 02:20:15;;;;;;;16.92;6.07;;;;;;;;;;10336325;28;20046;-84
2021/11/08 02:25:16;;;;;;;11.27;4.50;;;;;;;;;;10351730;28;20093;-84
2021/11/08 02:30:17;;;;;;;14.32;4.60;;;;;;;;;;10335835;28;20042;-84
2021/11/08 02:35:17;;;;;;;16.50;4.18;;;;;;;;;;10352628;28;20042;-83
2021/11/08 02:40:21;;;;;;;18.60;5.30;;;;;;;;;;10337465;28;20042;-84
2021/11/08 02:45:22;;;;;;;27.90;5.28;;;;;;;;;;10350557;28;20027;-84
2021/11/08 02:50:25;;;;;;;15.65;4.07;;;;;;;;;;10350544;28;20456;-84
2021/11/08 02:55:26;;;;;;;12.10;4.38;;;;;;;;;;10350778;28;20121;-84
2021/11/08 03:00:26;;;;;;;22.80;5.22;;;;;;;;;;10334148;28;20168;-84
2021/11/08 03:05:33;;;;;;;29.08;4.63;;;;;;;;;;10349649;28;20034;-84
2021/11/08 03:10:33;;;;;;;;;;;;;;;;;;10335465;28;20180;-84
2021/11/08 03:15:50;;;;;;;16.80;4.63;;;;;;;;;;10336693;28;20422;-84
2021/11/08 03:20:50;;;;;;;16.08;3.97;;;;;;;;;;10333861;28;20389;-84
2021/11/08 03:31:24;;;;;;;9.55;4.72;;;;;;;;;;10324609;28;20272;-84
2021/11/08 03:36:24;;;;;;;12.30;4.60;;;;;;;;;;10334956;28;20030;-84
2021/11/08 03:41:24;;;;;;;15.65;4.57;;;;;;;;;;10350629;28;20038;-84
2021/11/08 03:46:24;;;;;;;42.20;4.97;;;;;;;;;;10349279;28;20380;-84
2021/11/08 03:51:24;;;;;;;17.77;4.38;;;;;;;;;;10350606;28;20022;-84
2021/11/08 03:56:25;;;;;;;11.40;3.33;;;;;;;;;;10334121;28;20041;-84
2021/11/08 04:01:25;;;;;;;5.32;3.20;;;;;;;;;;10351926;28;20647;-85
2021/11/08 04:06:27;;;;;;;10.10;4.00;;;;;;;;;;10351748;28;20137;-84
2021/11/08 04:11:27;;;;;;;14.95;4.68;;;;;;;;;;10352494;28;20121;-84
2021/11/08 04:16:29;;;;;;;13.40;4.55;;;;;;;;;;10348979;28;20100;-84
2021/11/08 04:21:29;;;;;;;15.65;4.80;;;;;;;;;;10334321;28;20030;-85
2021/11/08 04:26:32;;;;;;;19.65;5.38;;;;;;;;;;10334958;28;20539;-84
2021/11/08 04:31:35;;;;;;;16.45;4.13;;;;;;;;;;10351392;28;20440;-85
2021/11/08 04:47:34;;;;;;;4.28;3.17;;;;;;;;;;10356668;28;20056;-84
2021/11/08 05:34:06;;;;;;;16.52;5.15;;;;;;;;;;10385012;28;20030;-84
2021/11/08 05:39:06;;;;;;;17.57;4.60;;;;;;;;;;10386030;28;20030;-84
2021/11/08 05:44:07;;;;;;;23.58;4.38;;;;;;;;;;10385074;28;20272;-85
2021/11/08 05:49:07;;;;;;;9.97;4.00;;;;;;;;;;10383752;28;20038;-81
2021/11/08 05:54:07;;;;;;;11.65;4.65;;;;;;;;;;10366791;28;20287;-84
2021/11/08 05:59:19;;;;;;;12.25;5.53;;;;;;;;;;10379012;28;20035;-85
2021/11/08 06:52:13;;;;;;;19.15;4.13;;;;;;;;;;10355893;28;20053;-83
2021/11/08 06:57:16;;;;;;;7.18;4.18;;;;;;;;;;10358110;28;20035;-83
2021/11/08 07:02:17;;;;;;;17.95;5.07;;;;;;;;;;10358166;28;20045;-83
2021/11/08 07:07:17;;;;;;;25.70;5.80;;;;;;;;;;10362868;28;20053;-83
2021/11/08 07:12:18;;;;;;;29.77;7.47;;;;;;;;;;10361882;28;20026;-83
2021/11/08 07:17:18;;;;;;;16.30;5.90;;;;;;;;;;10365458;28;20073;-84
2021/11/08 07:22:19;;;;;;;26.95;7.45;;;;;;;;;;10347383;28;20197;-83
2021/11/08 07:27:19;;;;;;;29.02;6.57;;;;;;;;;;10343763;28;20025;-83
2021/11/08 07:32:19;;;;;;;20.10;7.55;;;;;;;;;;10356571;28;20030;-83
2021/11/08 07:37:20;;;;;;;35.53;7.07;;;;;;;;;;10342386;28;20027;-83
2021/11/08 07:42:20;;;;;;;27.85;6.40;;;;;;;;;;10342730;28;20034;-83
2021/11/08 07:47:20;;;;;;;16.35;5.65;;;;;;;;;;10355654;28;20137;-84
2021/11/08 07:52:21;;;;;;;12.93;5.57;;;;;;;;;;10337207;28;20121;-83
2021/11/08 07:57:22;;;;;;;28.42;5.85;;;;;;;;;;10340137;28;20030;-84
2021/11/08 08:02:22;;;;;;;11.27;5.43;;;;;;;;;;10335436;28;20065;-84
2021/11/08 08:07:22;;;;;;;17.90;6.05;;;;;;;;;;10353236;28;20064;-83
2021/11/08 08:12:23;;;;;;;15.70;6.18;;;;;;;;;;10341368;28;20058;-83
2021/11/08 08:17:23;;;;;;;9.63;5.30;;;;;;;;;;10359899;28;20515;-82
2021/11/08 08:22:24;;;;;;;12.90;5.13;;;;;;;;;;10357445;28;20031;-82
2021/11/08 08:27:24;;;;;;;21.70;4.25;;;;;;;;;;10360380;28;20546;-82
2021/11/08 08:32:25;;;;;;;14.48;3.92;;;;;;;;;;10370972;28;20031;-81
2021/11/08 08:37:25;;;;;;;11.40;4.40;;;;;;;;;;10375062;28;20030;-81
2021/11/08 08:42:25;;;;;;;19.73;5.30;;;;;;;;;;10366066;28;20276;-82
2021/11/08 08:47:25;;;;;;;6.35;4.03;;;;;;;;;;10365426;28;20395;-82
2021/11/08 08:52:26;;;;;;;25.13;5.65;;;;;;;;;;10358858;28;20112;-82
2021/11/08 08:57:26;;;;;;;13.20;5.85;;;;;;;;;;10358568;28;20089;-81
2021/11/08 09:02:26;;;;;;;11.45;3.85;;;;;;;;;;10339725;28;20065;-81
2021/11/08 09:07:28;;;;;;;4.88;3.75;;;;;;;;;;10355095;28;20124;-82
2021/11/08 09:12:28;;;;;;;19.52;6.13;;;;;;;;;;10354301;28;20050;-82
2021/11/08 09:17:28;;;;;;;16.20;4.40;;;;;;;;;;10352664;28;20094;-81
2021/11/08 09:22:28;;;;;;;10.38;2.90;;;;;;;;;;10338871;28;20440;-80
2021/11/08 09:27:29;;;;;;;12.90;2.25;;;;;;;;;;10339333;28;20026;-80
2021/11/08 09:32:29;;;;;;;8.95;4.35;;;;;;;;;;10352793;28;20030;-81
2021/11/08 09:37:32;;;;;;;12.07;5.03;;;;;;;;;;10337607;28;20033;-81
2021/11/08 09:42:32;;;;;;;3.25;2.65;;;;;;;;;;10335677;28;20121;-81
2021/11/08 09:47:35;;;;;;;22.25;4.18;;;;;;;;;;10337336;28;20113;-81
2021/11/08 09:52:37;;;;;;;24.10;4.43;;;;;;;;;;10337949;28;20037;-81
2021/11/08 09:57:37;;;;;;;12.65;2.75;;;;;;;;;;10351993;28;20035;-81
2021/11/08 10:02:37;;;;;;;7.18;3.83;;;;;;;;;;10351711;28;20034;-82
2021/11/08 10:07:37;;;;;;;6.93;3.85;;;;;;;;;;10352084;28;20397;-80
2021/11/08 10:12:37;;;;;;;15.20;3.70;;;;;;;;;;10336571;28;20033;-80
2021/11/08 10:17:38;;;;;;;7.88;3.22;;;;;;;;;;10335189;28;20475;-80
2021/11/08 10:22:38;;;;;;;9.45;3.65;;;;;;;;;;10351090;28;20050;-80
2021/11/08 10:27:42;;;;;;;11.85;3.85;;;;;;;;;;10350948;28;20475;-80
2021/11/08 10:32:42;;;;;;;14.98;4.03;;;;;;;;;;10350518;28;20030;-80
2021/11/08 10:37:42;;;;;;;10.88;4.18;;;;;;;;;;10335177;28;20057;-79
2021/11/08 10:42:43;;;;;;;8.90;3.38;;;;;;;;;;10335636;28;20030;-81
2021/11/08 10:47:44;;;;;;;6.68;4.70;;;;;;;;;;10349845;28;20409;-80
2021/11/08 10:52:44;;;;;;;7.68;3.13;;;;;;;;;;10334814;28;20077;-80
2021/11/08 10:57:44;;;;;;;6.97;3.42;;;;;;;;;;10334624;28;20555;-80
2021/11/08 11:02:45;;;;;;;4.22;3.45;;;;;;;;;;10349827;28;20464;-80
2021/11/08 11:07:45;;;;;;;7.82;3.13;;;;;;;;;;10334488;28;20034;-81
2021/11/08 11:12:46;;;;;;;5.97;2.55;;;;;;;;;;10334862;28;20033;-80
2021/11/08 11:17:48;;;;;;;14.85;3.97;;;;;;;;;;10334079;28;20104;-80
2021/11/08 11:22:59;;;;;;;8.93;2.95;;;;;;;;;;10334989;28;20033;-80
2021/11/08 11:28:01;;;;;;;10.70;4.00;;;;;;;;;;10350500;28;20105;-80
2021/11/08 11:33:04;;;;;;;7.43;4.57;;;;;;;;;;10349634;28;20031;-81
2021/11/08 11:38:06;;;;;;;16.20;4.32;;;;;;;;;;10333379;28;20027;-80
2021/11/08 11:43:08;;;;;;;8.20;3.47;;;;;;;;;;10337513;28;20436;-80
2021/11/08 11:48:08;;;;;;;8.10;3.65;;;;;;;;;;10341445;28;20062;-80
2021/11/08 11:53:08;;;;;;;12.48;4.30;;;;;;;;;;10341620;28;20502;-79
2021/11/08 11:58:08;;;;;;;16.73;3.70;;;;;;;;;;10357043;28;20065;-80
2021/11/08 12:03:09;;;;;;;19.92;4.20;;;;;;;;;;10357352;28;20084;-80
2021/11/08 12:08:09;;;;;;;10.48;3.40;;;;;;;;;;10341711;28;20375;-80
2021/11/08 12:13:13;;;;;;;17.05;3.58;;;;;;;;;;10356021;28;20408;-79
2021/11/08 12:18:15;;;;;;;9.27;3.20;;;;;;;;;;10355865;28;20058;-80
2021/11/08 12:23:22;;;;;;;10.70;4.25;;;;;;;;;;10355669;28;20387;-80
2021/11/08 12:28:29;;;;;;;17.15;4.97;;;;;;;;;;10340122;28;20030;-80
2021/11/08 12:33:33;;;;;;;11.93;4.30;;;;;;;;;;10354184;28;20037;-80
2021/11/08 12:38:34;;;;;;;10.00;4.10;;;;;;;;;;10339486;28;20034;-80
2021/11/08 12:43:35;;;;;;;12.80;4.47;;;;;;;;;;10340940;28;20057;-80
2021/11/08 12:48:37;;;;;;;22.77;4.97;;;;;;;;;;10350361;28;20068;-80
2021/11/08 12:53:38;;;;;;;12.65;3.13;;;;;;;;;;10341767;28;20046;-80
2021/11/08 12:58:44;;;;;;;18.15;3.90;;;;;;;;;;10338069;28;20018;-80
2021/11/08 13:03:46;;;;;;;8.85;3.30;;;;;;;;;;10340137;28;20109;-80
2021/11/08 13:08:46;;;;;;;4.93;3.92;;;;;;;;;;10338795;28;20380;-80
2021/11/08 13:13:55;;;;;;;11.45;3.92;;;;;;;;;;10339160;28;20038;-80
2021/11/08 13:19:00;;;;;;;14.38;4.53;;;;;;;;;;10337069;28;20084;-80
2021/11/08 13:24:00;;;;;;;16.90;3.85;;;;;;;;;;10338578;28;20487;-80
2021/11/08 13:29:01;;;;;;;9.75;3.25;;;;;;;;;;10353878;28;20054;-79
2021/11/08 13:34:01;;;;;;;10.80;4.43;;;;;;;;;;10353556;28;20125;-80
2021/11/08 13:39:02;;;;;;;7.30;3.80;;;;;;;;;;10336401;28;20423;-79
2021/11/08 13:44:04;;;;;;;13.63;3.30;;;;;;;;;;10336509;28;20022;-79
2021/11/08 13:49:05;;;;;;;11.10;4.00;;;;;;;;;;10352412;28;20030;-79
2021/11/08 13:54:32;;;;;;;4.43;3.42;;;;;;;;;;10352995;28;20041;-79
2021/11/08 13:59:39;;;;;;;9.67;3.50;;;;;;;;;;10336508;28;20113;-79
2021/11/08 14:04:44;;;;;;;16.10;4.50;;;;;;;;;;10335188;28;20054;-79
2021/11/08 14:09:44;;;;;;;20.50;4.53;;;;;;;;;;10351350;28;20100;-80
2021/11/08 14:14:44;;;;;;;17.52;5.10;;;;;;;;;;10335535;28;20038;-79
2021/11/08 14:19:45;;;;;;;9.97;3.30;;;;;;;;;;10340025;28;20026;-80
2021/11/08 14:24:46;;;;;;;16.23;4.30;;;;;;;;;;10355229;28;20271;-80
2021/11/08 14:29:46;;;;;;;6.63;3.55;;;;;;;;;;10355243;28;20037;-80
2021/11/08 14:35:06;;;;;;;6.68;2.63;;;;;;;;;;10343659;28;20031;-79
2021/11/08 14:40:14;;;;;;;9.85;4.50;;;;;;;;;;10363925;28;20030;-79
2021/11/08 14:45:18;;;;;;;9.90;3.78;;;;;;;;;;10346963;28;20034;-80
2021/11/08 14:50:23;;;;;;;7.70;3.53;;;;;;;;;;10342106;28;20038;-79
2021/11/08 14:55:31;;;;;;;16.88;4.03;;;;;;;;;;10342766;28;20045;-80
2021/11/08 15:00:32;;;;;;;14.10;4.22;;;;;;;;;;10351640;28;20023;-80
2021/11/08 15:05:32;;;;;;;15.30;3.90;;;;;;;;;;10353660;28;20018;-79
2021/11/08 15:10:33;;;;;;;13.20;4.75;;;;;;;;;;10351247;28;20036;-80
2021/11/08 15:15:53;;;;;;;16.25;5.13;;;;;;;;;;10341687;28;20074;-77
2021/11/08 15:21:01;;;;;;;10.10;4.00;;;;;;;;;;10345654;28;20034;-78
2021/11/08 15:26:02;;;;;;;20.65;4.80;;;;;;;;;;10343998;28;20427;-79
2021/11/08 15:31:05;;;;;;;12.02;4.53;;;;;;;;;;10353504;28;20038;-78
2021/11/08 15:36:05;;;;;;;13.93;5.80;;;;;;;;;;10336040;28;20045;-79
2021/11/08 15:41:07;;;;;;;23.17;7.03;;;;;;;;;;10350557;28;20042;-79
2021/11/08 15:46:13;;;;;;;16.02;4.60;;;;;;;;;;10348798;28;20264;-80
2021/11/08 15:51:13;;;;;;;11.80;4.85;;;;;;;;;;10349416;28;20027;-80
2021/11/08 15:56:14;;;;;;;10.48;4.82;;;;;;;;;;10348673;28;20034;-79
2021/11/08 16:01:14;;;;;;;11.63;5.10;;;;;;;;;;10334181;28;20039;-79
2021/11/08 16:06:14;;;;;;;8.27;4.80;;;;;;;;;;10353722;28;20022;-78
2021/11/08 16:11:14;;;;;;;18.15;6.47;;;;;;;;;;10350961;28;20057;-78
2021/11/08 16:16:15;;;;;;;22.60;6.30;;;;;;;;;;10348460;28;20503;-79
2021/11/08 16:21:16;;;;;;;15.43;5.70;;;;;;;;;;10350297;28;20105;-79
2021/11/08 16:26:19;;;;;;;15.23;6.15;;;;;;;;;;10333250;28;20019;-79
2021/11/08 16:31:25;;;;;;;16.65;5.72;;;;;;;;;;10355610;28;20026;-79
2021/11/08 16:36:25;;;;;;;19.13;5.32;;;;;;;;;;10339451;28;20483;-79
2021/11/08 16:41:26;;;;;;;17.30;5.80;;;;;;;;;;10354918;28;20030;-80
2021/11/08 16:46:26;;;;;;;22.55;4.75;;;;;;;;;;10354943;28;20029;-79
2021/11/08 16:51:28;;;;;;;25.85;5.65;;;;;;;;;;10339535;28;20399;-79
2021/11/08 16:56:29;;;;;;;20.63;8.05;;;;;;;;;;10339063;28;20029;-79
2021/11/08 17:01:30;;;;;;;20.33;6.47;;;;;;;;;;10353490;28;20048;-80
2021/11/08 17:06:37;;;;;;;15.20;5.20;;;;;;;;;;10339757;28;20026;-80
2021/11/08 17:16:56;;;;;;;19.42;8.50;;;;;;;;;;10338938;28;20058;-79
2021/11/08 17:21:56;;;;;;;17.42;6.50;;;;;;;;;;10338345;28;20027;-80
2021/11/08 17:26:56;;;;;;;14.63;6.50;;;;;;;;;;10336755;28;20307;-79
2021/11/08 17:31:57;;;;;;;23.25;7.35;;;;;;;;;;10337121;28;20038;-79
2021/11/08 17:36:57;;;;;;;18.07;6.60;;;;;;;;;;10336426;28;20395;-80
2021/11/08 17:41:57;;;;;;;20.02;6.65;;;;;;;;;;10335817;28;20343;-80
2021/11/08 17:46:58;;;;;;;14.93;8.25;;;;;;;;;;10335952;28;20061;-80
2021/11/08 17:51:58;;;;;;;13.93;6.75;;;;;;;;;;10336547;28;20435;-80
2021/11/08 17:56:59;;;;;;;18.10;8.75;;;;;;;;;;10337921;28;20037;-80
2021/11/08 18:01:59;;;;;;;15.38;8.98;;;;;;;;;;10352416;28;20034;-80
2021/11/08 18:06:59;;;;;;;28.27;8.75;;;;;;;;;;10336432;28;20034;-80
2021/11/08 18:11:59;;;;;;;24.83;7.45;;;;;;;;;;10335660;28;20471;-80
2021/11/08 18:17:00;;;;;;;17.75;7.30;;;;;;;;;;10351452;28;20054;-80
2021/11/08 18:22:23;;;;;;;8.80;6.93;;;;;;;;;;10335001;28;20105;-79
2021/11/08 18:27:22;;;;;;;15.07;6.97;;;;;;;;;;10335485;28;20037;-79
2021/11/08 18:32:22;;;;;;;17.80;7.88;;;;;;;;;;10350401;28;20022;-80
2021/11/08 18:37:23;;;;;;;13.38;7.30;;;;;;;;;;10335965;28;20030;-80
2021/11/08 18:42:23;;;;;;;44.95;8.77;;;;;;;;;;10334982;28;20043;-80
2021/11/08 18:47:23;;;;;;;11.98;6.88;;;;;;;;;;10349420;28;20031;-79
2021/11/08 18:52:23;;;;;;;24.23;10.95;;;;;;;;;;10349151;28;20413;-80
2021/11/08 18:57:25;;;;;;;18.63;7.82;;;;;;;;;;10350393;28;20113;-80
2021/11/08 19:02:34;;;;;;;19.13;9.07;;;;;;;;;;10333151;28;20038;-80
2021/11/08 19:12:53;;;;;;;24.23;7.95;;;;;;;;;;10334224;28;20519;-79
2021/11/08 19:17:54;;;;;;;21.30;8.77;;;;;;;;;;10333395;28;20058;-80
2021/11/08 19:22:54;;;;;;;12.18;8.75;;;;;;;;;;10348482;28;20022;-79
2021/11/08 19:27:55;;;;;;;18.15;7.07;;;;;;;;;;10333945;28;20117;-80
2021/11/08 19:33:15;;;;;;;19.00;7.10;;;;;;;;;;10333093;28;20081;-80
2021/11/08 19:38:15;;;;;;;15.35;6.65;;;;;;;;;;10333132;28;20036;-80
2021/11/08 19:43:16;;;;;;;14.88;7.25;;;;;;;;;;10349170;28;20116;-78
2021/11/08 19:48:17;;;;;;;12.30;7.20;;;;;;;;;;10332384;28;20061;-78
2021/11/08 19:53:20;;;;;;;15.45;7.03;;;;;;;;;;10348208;28;20038;-80
2021/11/08 19:58:21;;;;;;;22.02;8.63;;;;;;;;;;10333399;28;20030;-79
2021/11/08 20:03:22;;;;;;;33.33;8.05;;;;;;;;;;10336337;28;20034;-79
2021/11/08 20:08:22;;;;;;;14.30;7.07;;;;;;;;;;10339347;28;20465;-79
2021/11/08 20:18:26;;;;;;;29.95;7.78;;;;;;;;;;10340502;28;20081;-81
2021/11/08 20:23:27;;;;;;;17.05;6.80;;;;;;;;;;10340321;28;20065;-79
2021/11/08 20:28:29;;;;;;;26.80;9.02;;;;;;;;;;10339964;28;20057;-79
2021/11/08 20:38:54;;;;;;;13.38;7.50;;;;;;;;;;10338697;28;20453;-79
2021/11/08 20:54:41;;;;;;;31.38;6.93;;;;;;;;;;10332007;28;20047;-80
2021/11/08 21:05:29;;;;;;;10.60;7.75;;;;;;;;;;10312431;28;20093;-79
2021/11/08 21:15:29;;;;;;;16.60;6.75;;;;;;;;;;10337309;28;20440;-82
2021/11/08 21:20:29;;;;;;;40.88;8.95;;;;;;;;;;10337987;28;20361;-79
2021/11/08 21:25:31;;;;;;;30.10;6.57;;;;;;;;;;10336343;28;20030;-79
2021/11/08 21:41:09;;;;;;;27.83;7.82;;;;;;;;;;10337046;28;20129;-79
2021/11/08 21:46:09;;;;;;;15.80;7.20;;;;;;;;;;10336908;28;20105;-78
2021/11/08 21:51:09;;;;;;;36.83;10.77;;;;;;;;;;10337408;28;20161;-80
2021/11/08 21:56:09;;;;;;;25.27;7.18;;;;;;;;;;10335831;28;20080;-78
2021/11/08 22:01:10;;;;;;;11.85;7.32;;;;;;;;;;10351962;28;20034;-79
2021/11/08 22:06:10;;;;;;;17.23;6.32;;;;;;;;;;10336838;28;20054;-79
2021/11/08 22:11:11;;;;;;;15.50;6.57;;;;;;;;;;10335666;28;20026;-79
2021/11/08 22:16:11;;;;;;;26.38;7.03;;;;;;;;;;10335442;28;20380;-79
2021/11/08 22:21:11;;;;;;;17.13;7.15;;;;;;;;;;10335125;28;20165;-78
2021/11/08 22:26:12;;;;;;;13.43;7.20;;;;;;;;;;10351560;28;20698;-79
2021/11/08 22:31:12;;;;;;;16.50;6.80;;;;;;;;;;10336044;28;20118;-79
2021/11/08 22:36:16;;;;;;;25.95;9.32;;;;;;;;;;10350418;28;20034;-80
2021/11/08 22:41:17;;;;;;;24.48;8.18;;;;;;;;;;10335707;28;20034;-80
2021/11/08 22:46:19;;;;;;;17.33;7.03;;;;;;;;;;10351057;28;20026;-80
2021/11/08 22:51:19;;;;;;;13.82;7.05;;;;;;;;;;10337031;28;20026;-79
2021/11/08 22:56:19;;;;;;;25.58;8.98;;;;;;;;;;10355119;28;20026;-76
2021/11/08 23:01:21;;;;;;;22.33;7.27;;;;;;;;;;10384319;28;20038;-77
2021/11/08 23:06:21;;;;;;;20.13;5.90;;;;;;;;;;10337831;28;20272;-80
2021/11/08 23:11:21;;;;;;;14.48;7.78;;;;;;;;;;10336367;28;20027;-81
2021/11/08 23:16:23;;;;;;;11.95;6.55;;;;;;;;;;10335554;28;20046;-80
2021/11/08 23:21:24;;;;;;;14.40;5.88;;;;;;;;;;10335044;28;20068;-79
2021/11/08 23:26:25;;;;;;;29.33;9.38;;;;;;;;;;10349683;28;20029;-79
2021/11/08 23:31:25;;;;;;;21.75;9.45;;;;;;;;;;10350361;28;20031;-79
2021/11/08 23:36:26;;;;;;;21.40;7.43;;;;;;;;;;10334841;28;20097;-80
2021/11/08 23:41:26;;;;;;;26.30;7.75;;;;;;;;;;10341274;28;20526;-80
2021/11/08 23:46:26;;;;;;;24.30;7.63;;;;;;;;;;10357394;28;20030;-80
2021/11/08 23:51:26;;;;;;;23.02;9.05;;;;;;;;;;10357900;28;20379;-80
2021/11/08 23:56:28;;;;;;;30.75;7.95;;;;;;;;;;10357550;28;20121;-80
